createdAt,value
2022-10-18T00:00:05.098Z,6.7
2022-10-18T00:05:05.095Z,7.3
2022-10-18T00:10:05.100Z,8.2
2022-10-18T00:15:05.110Z,7.6
2022-10-18T00:20:05.115Z,7.6
2022-10-18T00:25:05.104Z,6.9
2022-10-18T00:30:05.115Z,5.9
2022-10-18T00:35:05.104Z,7.1
2022-10-18T00:40:05.130Z,7.2
2022-10-18T00:45:05.098Z,8.8
2022-10-18T00:50:05.102Z,8.8
2022-10-18T00:55:05.097Z,9.8
2022-10-18T01:00:05.096Z,9.8
2022-10-18T01:05:05.092Z,9.3
2022-10-18T01:10:05.105Z,7.2
2022-10-18T01:15:05.093Z,8.1
2022-10-18T01:20:05.106Z,8.1
2022-10-18T01:25:05.096Z,8.7
2022-10-18T01:30:05.104Z,8.9
2022-10-18T01:35:05.092Z,8.2
2022-10-18T01:40:05.119Z,7.5
2022-10-18T01:45:05.102Z,7.6
2022-10-18T01:50:05.105Z,7.6
2022-10-18T01:55:05.097Z,7.6
2022-10-18T02:00:05.094Z,9
2022-10-18T02:05:05.099Z,8.7
2022-10-18T02:10:05.170Z,8.5
2022-10-18T02:15:05.096Z,10
2022-10-18T02:20:05.108Z,10
2022-10-18T02:25:05.113Z,9.5
2022-10-18T02:30:05.122Z,11.4
2022-10-18T02:35:05.153Z,11.4
2022-10-18T02:40:05.108Z,13.4
2022-10-18T02:45:05.098Z,14.1
2022-10-18T02:50:05.113Z,14.1
2022-10-18T02:55:05.098Z,11.9
2022-10-18T03:00:05.099Z,11.1
2022-10-18T03:05:05.112Z,10.3
2022-10-18T03:10:05.112Z,10.8
2022-10-18T03:15:05.106Z,12.6
2022-10-18T03:20:05.107Z,12.6
2022-10-18T03:25:05.107Z,12.7
2022-10-18T03:30:05.104Z,11.9
2022-10-18T03:35:05.092Z,9.9
2022-10-18T03:40:05.103Z,11.7
2022-10-18T03:45:05.102Z,10
2022-10-18T03:50:05.109Z,10
2022-10-18T03:55:05.098Z,10.1
2022-10-18T04:00:05.109Z,10.2
2022-10-18T04:05:05.105Z,11.1
2022-10-18T04:10:05.111Z,11.7
2022-10-18T04:15:05.110Z,10.8
2022-10-18T04:20:05.103Z,10.8
2022-10-18T04:25:05.086Z,13.1
2022-10-18T04:30:05.101Z,13.8
2022-10-18T04:35:05.108Z,13.5
2022-10-18T04:40:05.101Z,14.2
2022-10-18T04:45:05.105Z,16.2
2022-10-18T04:50:05.103Z,16.2
2022-10-18T04:55:05.107Z,15
2022-10-18T05:00:05.110Z,15.1
2022-10-18T05:05:05.398Z,14.2
2022-10-18T05:10:05.111Z,15.9
2022-10-18T05:15:05.088Z,13.9
2022-10-18T05:20:05.189Z,13.9
2022-10-18T05:25:05.101Z,11
2022-10-18T05:30:05.605Z,12.9
2022-10-18T05:35:05.113Z,11.8
2022-10-18T05:40:05.101Z,11.6
2022-10-18T05:45:05.108Z,11.4
2022-10-18T05:50:05.105Z,11.4
2022-10-18T05:55:05.093Z,11.5
2022-10-18T06:00:05.116Z,11.3
2022-10-18T06:05:05.109Z,11.3
2022-10-18T06:10:05.101Z,11.3
2022-10-18T06:15:05.103Z,11.2
2022-10-18T06:20:05.108Z,11.2
2022-10-18T06:25:05.102Z,10.6
2022-10-18T06:30:05.116Z,10.7
2022-10-18T06:35:05.102Z,8.9
2022-10-18T06:40:05.104Z,8.1
2022-10-18T06:45:05.094Z,7.3
2022-10-18T06:50:05.103Z,7.3
2022-10-18T06:55:09.041Z,8.6
2022-10-18T07:00:05.104Z,9.5
2022-10-18T07:05:05.095Z,9.6
2022-10-18T07:10:05.102Z,9.6
2022-10-18T07:15:09.051Z,8.6
2022-10-18T07:20:05.120Z,8.6
2022-10-18T07:25:05.117Z,7.8
2022-10-18T07:30:05.101Z,7.7
2022-10-18T07:35:05.157Z,7.3
2022-10-18T07:40:05.101Z,6.8
2022-10-18T07:45:05.088Z,7.5
2022-10-18T07:50:05.124Z,7.5
2022-10-18T07:55:05.097Z,8.3
2022-10-18T08:00:05.105Z,8.4
2022-10-18T08:05:05.097Z,7.8
2022-10-18T08:10:05.116Z,8.1
2022-10-18T08:15:05.108Z,8.5
2022-10-18T08:20:12.547Z,8.5
2022-10-18T08:25:05.101Z,8.4
2022-10-18T08:30:05.103Z,8.9
2022-10-18T08:35:06.860Z,7.1
2022-10-18T08:40:05.115Z,8.7
2022-10-18T08:45:12.479Z,8.5
2022-10-18T08:50:05.110Z,8.5
2022-10-18T08:55:05.098Z,8.7
2022-10-18T09:00:05.097Z,9.2
2022-10-18T09:05:05.097Z,9.1
2022-10-18T09:10:05.124Z,9.5
2022-10-18T09:15:05.089Z,9.9
2022-10-18T09:20:05.098Z,9.9
2022-10-18T09:25:05.094Z,9.2
2022-10-18T09:30:05.146Z,9.9
2022-10-18T09:35:05.105Z,10.4
2022-10-18T09:40:05.102Z,10.6
2022-10-18T09:45:05.095Z,11.2
2022-10-18T09:50:05.104Z,11.2
2022-10-18T09:55:05.098Z,11.8
2022-10-18T10:00:05.098Z,9.8
2022-10-18T10:05:05.173Z,9.3
2022-10-18T10:10:05.110Z,9.8
2022-10-18T10:15:05.094Z,8.8
2022-10-18T10:20:05.106Z,8.8
2022-10-18T10:25:05.100Z,8.6
2022-10-18T10:30:07.185Z,9.9
2022-10-18T10:35:05.089Z,11.4
2022-10-18T10:40:17.610Z,11.6
2022-10-18T10:45:05.088Z,12.1
2022-10-18T10:50:05.113Z,12.1
2022-10-18T10:55:23.191Z,11.9
2022-10-18T11:00:05.116Z,12.7
2022-10-18T11:05:05.101Z,11.7
2022-10-18T11:10:05.097Z,11.3
2022-10-18T11:15:05.115Z,10.9
2022-10-18T11:20:05.109Z,10.9
2022-10-18T11:25:05.106Z,10.8
2022-10-18T11:30:05.107Z,11.5
2022-10-18T11:35:05.090Z,11.7
2022-10-18T11:40:05.122Z,11.2
2022-10-18T11:45:05.090Z,11.1
2022-10-18T11:50:05.099Z,11.1
2022-10-18T11:55:05.108Z,10.7
2022-10-18T12:00:05.094Z,9.9
2022-10-18T12:05:22.932Z,7.4
2022-10-18T12:10:05.097Z,7.7
2022-10-18T12:15:05.098Z,7.1
2022-10-18T12:20:05.101Z,7.1
2022-10-18T12:25:05.106Z,5.8
2022-10-18T12:30:05.107Z,6
2022-10-18T12:35:05.092Z,5.5
2022-10-18T12:40:15.641Z,5.1
2022-10-18T12:45:05.092Z,4.9
2022-10-18T12:50:05.093Z,4.9
2022-10-18T12:55:05.099Z,4.1
2022-10-18T13:00:05.100Z,3.9
2022-10-18T13:05:09.133Z,3.9
2022-10-18T13:10:05.099Z,3.4
2022-10-18T13:15:21.050Z,2.7
2022-10-18T13:20:24.900Z,2.7
2022-10-18T13:25:05.120Z,2.3
2022-10-18T13:30:05.128Z,2.1
2022-10-18T13:35:05.091Z,2
2022-10-18T13:40:05.110Z,1.8
2022-10-18T13:45:05.101Z,2.2
2022-10-18T13:50:05.104Z,2.2
2022-10-18T13:55:05.088Z,1.9
2022-10-18T14:00:05.157Z,2.2
2022-10-18T14:05:16.827Z,1.8
2022-10-18T14:10:05.167Z,1.6
2022-10-18T14:15:05.091Z,1.8
2022-10-18T14:20:05.097Z,1.8
2022-10-18T14:25:05.090Z,1.7
2022-10-18T14:30:05.102Z,1.4
2022-10-18T14:40:05.186Z,1.1
2022-10-18T14:45:05.132Z,1
2022-10-18T14:50:05.096Z,1
2022-10-18T14:55:05.096Z,1.1
2022-10-18T15:00:05.106Z,0.9
2022-10-18T15:05:05.099Z,1
2022-10-18T15:10:05.128Z,1.1
2022-10-18T15:15:05.114Z,1.1
2022-10-18T15:20:06.066Z,0
2022-10-18T15:25:05.099Z,1.1
2022-10-18T15:30:05.098Z,1
2022-10-18T15:35:05.084Z,1
2022-10-18T15:40:05.104Z,1.2
2022-10-18T15:45:05.094Z,1.2
2022-10-18T15:50:05.110Z,1.2
2022-10-18T15:55:05.110Z,1.2
2022-10-18T16:00:05.102Z,1.3
2022-10-18T16:05:05.092Z,1.1
2022-10-18T16:10:05.106Z,1.4
2022-10-18T16:15:05.085Z,1.4
2022-10-18T16:20:05.103Z,1.8
2022-10-18T16:25:05.084Z,1.4
2022-10-18T16:30:06.112Z,1.6
2022-10-18T16:35:05.102Z,1.7
2022-10-18T16:40:05.100Z,1.8
2022-10-18T16:45:05.099Z,1.8
2022-10-18T16:50:05.721Z,1.7
2022-10-18T16:55:05.106Z,2.2
2022-10-18T17:00:05.113Z,2.3
2022-10-18T17:05:05.111Z,1.7
2022-10-18T17:10:05.117Z,2
2022-10-18T17:15:05.101Z,2
2022-10-18T17:20:05.118Z,2
2022-10-18T17:25:05.098Z,1.7
2022-10-18T17:30:05.093Z,2.3
2022-10-18T17:35:05.089Z,2.1
2022-10-18T17:40:05.103Z,2.1
2022-10-18T17:45:05.098Z,2.1
2022-10-18T17:50:05.101Z,1.9
2022-10-18T17:55:05.099Z,2.3
2022-10-18T18:00:05.098Z,2
2022-10-18T18:05:05.090Z,2.6
2022-10-18T18:10:05.098Z,2.5
2022-10-18T18:15:05.100Z,2.5
2022-10-18T18:20:05.130Z,2.3
2022-10-18T18:25:05.111Z,2.1
2022-10-18T18:30:05.114Z,2.3
2022-10-18T18:35:05.120Z,2.1
2022-10-18T18:40:05.100Z,2.2
2022-10-18T18:45:05.105Z,2.2
2022-10-18T18:50:05.109Z,2.3
2022-10-18T18:55:05.101Z,2.3
2022-10-18T19:00:05.101Z,2.2
2022-10-18T19:05:05.092Z,2
2022-10-18T19:10:05.097Z,2.1
2022-10-18T19:15:05.106Z,2.1
2022-10-18T19:20:05.105Z,1.8
2022-10-18T19:25:05.096Z,1.7
2022-10-18T19:30:05.083Z,2.1
2022-10-18T19:35:05.103Z,2
2022-10-18T19:40:05.102Z,2
2022-10-18T19:45:05.098Z,2
2022-10-18T19:50:05.107Z,2.1
2022-10-18T19:55:05.084Z,2.1
2022-10-18T20:00:06.747Z,1.6
2022-10-18T20:05:05.090Z,1.9
2022-10-18T20:10:05.118Z,1.8
2022-10-18T20:15:05.104Z,1.8
2022-10-18T20:20:05.110Z,1.9
2022-10-18T20:25:05.097Z,2.7
2022-10-18T20:30:07.603Z,2
2022-10-18T20:35:05.103Z,2
2022-10-18T20:40:05.102Z,2.4
2022-10-18T20:45:05.093Z,2.4
2022-10-18T20:50:05.101Z,1.8
2022-10-18T20:55:05.108Z,1.7
2022-10-18T21:00:05.102Z,1.8
2022-10-18T21:05:05.108Z,2
2022-10-18T21:10:05.099Z,1.9
2022-10-18T21:15:05.094Z,1.9
2022-10-18T21:20:05.114Z,1.9
2022-10-18T21:25:05.114Z,1.8
2022-10-18T21:30:05.174Z,2.3
2022-10-18T21:35:05.106Z,2.1
2022-10-18T21:40:05.114Z,2.3
2022-10-18T21:45:05.113Z,2.3
2022-10-18T21:50:05.112Z,2.2
2022-10-18T21:55:05.094Z,1.7
2022-10-18T22:00:05.109Z,2.6
2022-10-18T22:05:07.065Z,1.9
2022-10-18T22:10:05.094Z,2.4
2022-10-18T22:15:05.105Z,2.4
2022-10-18T22:20:05.101Z,2.6
2022-10-18T22:25:05.086Z,1.9
2022-10-18T22:30:05.098Z,2.5
2022-10-18T22:35:05.091Z,2.3
2022-10-18T22:40:05.103Z,2.4
2022-10-18T22:45:05.100Z,2.4
2022-10-18T22:50:05.108Z,2.6
2022-10-18T22:55:05.082Z,2.9
2022-10-18T23:00:05.097Z,3
2022-10-18T23:05:05.097Z,2.7
2022-10-18T23:10:05.102Z,2.6
2022-10-18T23:15:05.093Z,2.6
2022-10-18T23:20:05.188Z,2.8
2022-10-18T23:25:05.083Z,3
2022-10-18T23:30:05.098Z,3.1
2022-10-18T23:35:05.093Z,3.1
2022-10-18T23:40:05.099Z,3.1
2022-10-18T23:45:05.098Z,3.1
2022-10-18T23:50:05.098Z,6.1
2022-10-18T23:55:05.104Z,4.7
